sensor_id;sensor_type;location;lat;lon;timestamp;P1;durP1;ratioP1;P2;durP2;ratioP2
76373;SDS011;65197;50.164;8.012;2023-06-26T00:00:11;6.38;;;4.95;;
76373;SDS011;65197;50.164;8.012;2023-06-26T00:02:37;6.30;;;4.82;;
76373;SDS011;65197;50.164;8.012;2023-06-26T00:05:02;7.10;;;5.15;;
76373;SDS011;65197;50.164;8.012;2023-06-26T00:07:29;7.28;;;5.20;;
76373;SDS011;65197;50.164;8.012;2023-06-26T00:09:55;7.20;;;5.18;;
76373;SDS011;65197;50.164;8.012;2023-06-26T00:12:21;6.10;;;4.93;;
76373;SDS011;65197;50.164;8.012;2023-06-26T00:14:47;7.75;;;5.43;;
76373;SDS011;65197;50.164;8.012;2023-06-26T00:17:12;5.82;;;5.05;;
76373;SDS011;65197;50.164;8.012;2023-06-26T00:19:37;6.80;;;5.50;;
76373;SDS011;65197;50.164;8.012;2023-06-26T00:22:03;6.90;;;5.43;;
76373;SDS011;65197;50.164;8.012;2023-06-26T00:24:28;7.15;;;5.25;;
76373;SDS011;65197;50.164;8.012;2023-06-26T00:26:54;7.32;;;5.43;;
76373;SDS011;65197;50.164;8.012;2023-06-26T00:29:19;7.10;;;5.30;;
76373;SDS011;65197;50.164;8.012;2023-06-26T00:31:44;7.07;;;5.40;;
76373;SDS011;65197;50.164;8.012;2023-06-26T00:34:10;6.80;;;4.82;;
76373;SDS011;65197;50.164;8.012;2023-06-26T00:36:35;8.43;;;5.70;;
76373;SDS011;65197;50.164;8.012;2023-06-26T00:39:01;6.90;;;5.65;;
76373;SDS011;65197;50.164;8.012;2023-06-26T00:41:28;8.75;;;5.30;;
76373;SDS011;65197;50.164;8.012;2023-06-26T00:43:54;6.82;;;5.28;;
76373;SDS011;65197;50.164;8.012;2023-06-26T00:46:19;7.07;;;5.57;;
76373;SDS011;65197;50.164;8.012;2023-06-26T00:48:45;7.22;;;5.47;;
76373;SDS011;65197;50.164;8.012;2023-06-26T00:51:13;7.18;;;4.85;;
76373;SDS011;65197;50.164;8.012;2023-06-26T00:53:39;6.28;;;4.72;;
76373;SDS011;65197;50.164;8.012;2023-06-26T00:56:04;6.32;;;4.88;;
76373;SDS011;65197;50.164;8.012;2023-06-26T00:58:30;6.60;;;4.82;;
76373;SDS011;65197;50.164;8.012;2023-06-26T01:00:56;5.93;;;4.63;;
76373;SDS011;65197;50.164;8.012;2023-06-26T01:03:24;6.97;;;5.22;;
76373;SDS011;65197;50.164;8.012;2023-06-26T01:05:51;6.35;;;5.10;;
76373;SDS011;65197;50.164;8.012;2023-06-26T01:08:17;5.93;;;4.60;;
76373;SDS011;65197;50.164;8.012;2023-06-26T01:10:44;6.03;;;4.90;;
76373;SDS011;65197;50.164;8.012;2023-06-26T01:13:11;6.25;;;5.28;;
76373;SDS011;65197;50.164;8.012;2023-06-26T01:15:37;6.78;;;5.00;;
76373;SDS011;65197;50.164;8.012;2023-06-26T01:18:03;6.00;;;4.93;;
76373;SDS011;65197;50.164;8.012;2023-06-26T01:20:32;6.28;;;4.63;;
76373;SDS011;65197;50.164;8.012;2023-06-26T01:23:10;6.03;;;4.75;;
76373;SDS011;65197;50.164;8.012;2023-06-26T01:28:27;6.10;;;4.80;;
76373;SDS011;65197;50.164;8.012;2023-06-26T01:30:53;5.57;;;4.28;;
76373;SDS011;65197;50.164;8.012;2023-06-26T01:33:20;7.75;;;5.05;;
76373;SDS011;65197;50.164;8.012;2023-06-26T01:35:46;6.68;;;5.55;;
76373;SDS011;65197;50.164;8.012;2023-06-26T01:38:18;6.15;;;4.70;;
76373;SDS011;65197;50.164;8.012;2023-06-26T01:40:45;5.82;;;4.65;;
76373;SDS011;65197;50.164;8.012;2023-06-26T01:45:50;6.95;;;4.60;;
76373;SDS011;65197;50.164;8.012;2023-06-26T01:48:19;5.75;;;4.38;;
76373;SDS011;65197;50.164;8.012;2023-06-26T01:50:51;5.13;;;4.22;;
76373;SDS011;65197;50.164;8.012;2023-06-26T01:53:18;7.35;;;4.90;;
76373;SDS011;65197;50.164;8.012;2023-06-26T01:55:59;5.97;;;4.53;;
76373;SDS011;65197;50.164;8.012;2023-06-26T01:58:30;5.75;;;4.45;;
76373;SDS011;65197;50.164;8.012;2023-06-26T02:00:57;7.40;;;4.72;;
76373;SDS011;65197;50.164;8.012;2023-06-26T02:03:24;6.60;;;4.60;;
76373;SDS011;65197;50.164;8.012;2023-06-26T02:05:49;7.93;;;4.28;;
76373;SDS011;65197;50.164;8.012;2023-06-26T02:08:16;6.70;;;4.53;;
76373;SDS011;65197;50.164;8.012;2023-06-26T02:10:41;6.13;;;4.78;;
76373;SDS011;65197;50.164;8.012;2023-06-26T02:13:07;6.35;;;4.68;;
76373;SDS011;65197;50.164;8.012;2023-06-26T02:15:32;6.28;;;4.75;;
76373;SDS011;65197;50.164;8.012;2023-06-26T02:17:57;6.45;;;5.00;;
76373;SDS011;65197;50.164;8.012;2023-06-26T02:20:23;6.50;;;5.00;;
76373;SDS011;65197;50.164;8.012;2023-06-26T02:22:48;6.97;;;4.97;;
76373;SDS011;65197;50.164;8.012;2023-06-26T02:25:13;5.78;;;4.60;;
76373;SDS011;65197;50.164;8.012;2023-06-26T02:27:39;5.93;;;4.80;;
76373;SDS011;65197;50.164;8.012;2023-06-26T02:30:04;7.50;;;5.15;;
76373;SDS011;65197;50.164;8.012;2023-06-26T02:32:30;6.80;;;4.97;;
76373;SDS011;65197;50.164;8.012;2023-06-26T02:34:56;6.35;;;5.13;;
76373;SDS011;65197;50.164;8.012;2023-06-26T02:37:21;6.32;;;4.30;;
76373;SDS011;65197;50.164;8.012;2023-06-26T02:39:46;5.97;;;5.07;;
76373;SDS011;65197;50.164;8.012;2023-06-26T02:42:12;6.72;;;4.88;;
76373;SDS011;65197;50.164;8.012;2023-06-26T02:44:37;6.22;;;5.30;;
76373;SDS011;65197;50.164;8.012;2023-06-26T02:47:02;5.57;;;4.50;;
76373;SDS011;65197;50.164;8.012;2023-06-26T02:49:28;5.80;;;4.63;;
76373;SDS011;65197;50.164;8.012;2023-06-26T02:51:53;6.43;;;4.97;;
76373;SDS011;65197;50.164;8.012;2023-06-26T02:54:19;5.70;;;4.57;;
76373;SDS011;65197;50.164;8.012;2023-06-26T02:56:44;8.27;;;5.18;;
76373;SDS011;65197;50.164;8.012;2023-06-26T02:59:09;6.95;;;5.05;;
76373;SDS011;65197;50.164;8.012;2023-06-26T03:01:35;6.47;;;4.95;;
76373;SDS011;65197;50.164;8.012;2023-06-26T03:04:00;6.40;;;4.90;;
76373;SDS011;65197;50.164;8.012;2023-06-26T03:06:26;6.35;;;4.63;;
76373;SDS011;65197;50.164;8.012;2023-06-26T03:08:52;6.35;;;4.68;;
76373;SDS011;65197;50.164;8.012;2023-06-26T03:11:18;6.88;;;5.07;;
76373;SDS011;65197;50.164;8.012;2023-06-26T03:13:44;6.38;;;5.13;;
76373;SDS011;65197;50.164;8.012;2023-06-26T03:16:10;7.28;;;4.78;;
76373;SDS011;65197;50.164;8.012;2023-06-26T03:18:35;7.30;;;4.75;;
76373;SDS011;65197;50.164;8.012;2023-06-26T03:21:00;5.57;;;4.25;;
76373;SDS011;65197;50.164;8.012;2023-06-26T03:23:26;7.45;;;4.43;;
76373;SDS011;65197;50.164;8.012;2023-06-26T03:25:53;7.10;;;4.95;;
76373;SDS011;65197;50.164;8.012;2023-06-26T03:28:18;6.53;;;4.80;;
76373;SDS011;65197;50.164;8.012;2023-06-26T03:30:43;6.65;;;4.65;;
76373;SDS011;65197;50.164;8.012;2023-06-26T03:33:09;8.05;;;4.82;;
76373;SDS011;65197;50.164;8.012;2023-06-26T03:35:34;6.22;;;4.72;;
76373;SDS011;65197;50.164;8.012;2023-06-26T03:38:00;5.97;;;4.72;;
76373;SDS011;65197;50.164;8.012;2023-06-26T03:40:26;6.20;;;4.82;;
76373;SDS011;65197;50.164;8.012;2023-06-26T03:42:52;6.38;;;4.95;;
76373;SDS011;65197;50.164;8.012;2023-06-26T03:45:17;5.97;;;4.55;;
76373;SDS011;65197;50.164;8.012;2023-06-26T03:47:43;6.38;;;5.40;;
76373;SDS011;65197;50.164;8.012;2023-06-26T03:50:09;6.22;;;4.60;;
76373;SDS011;65197;50.164;8.012;2023-06-26T03:52:34;7.00;;;5.25;;
76373;SDS011;65197;50.164;8.012;2023-06-26T03:55:00;7.20;;;4.78;;
76373;SDS011;65197;50.164;8.012;2023-06-26T03:57:25;6.82;;;4.85;;
76373;SDS011;65197;50.164;8.012;2023-06-26T03:59:51;6.25;;;4.80;;
76373;SDS011;65197;50.164;8.012;2023-06-26T04:02:18;7.15;;;4.72;;
76373;SDS011;65197;50.164;8.012;2023-06-26T04:04:43;6.70;;;4.65;;
76373;SDS011;65197;50.164;8.012;2023-06-26T04:07:09;7.10;;;4.82;;
76373;SDS011;65197;50.164;8.012;2023-06-26T04:09:35;7.68;;;5.45;;
76373;SDS011;65197;50.164;8.012;2023-06-26T04:12:00;9.23;;;5.10;;
76373;SDS011;65197;50.164;8.012;2023-06-26T04:14:26;7.32;;;5.30;;
76373;SDS011;65197;50.164;8.012;2023-06-26T04:16:51;7.28;;;4.90;;
76373;SDS011;65197;50.164;8.012;2023-06-26T04:19:17;6.15;;;5.03;;
76373;SDS011;65197;50.164;8.012;2023-06-26T04:21:42;8.25;;;5.40;;
76373;SDS011;65197;50.164;8.012;2023-06-26T04:24:08;7.22;;;5.20;;
76373;SDS011;65197;50.164;8.012;2023-06-26T04:26:34;7.00;;;5.05;;
76373;SDS011;65197;50.164;8.012;2023-06-26T04:28:59;7.05;;;5.20;;
76373;SDS011;65197;50.164;8.012;2023-06-26T04:31:24;6.75;;;5.25;;
76373;SDS011;65197;50.164;8.012;2023-06-26T04:33:50;7.22;;;5.05;;
76373;SDS011;65197;50.164;8.012;2023-06-26T04:36:16;7.53;;;5.28;;
76373;SDS011;65197;50.164;8.012;2023-06-26T04:38:42;6.25;;;5.10;;
76373;SDS011;65197;50.164;8.012;2023-06-26T04:41:08;6.78;;;5.45;;
76373;SDS011;65197;50.164;8.012;2023-06-26T04:43:33;6.38;;;5.00;;
76373;SDS011;65197;50.164;8.012;2023-06-26T04:45:59;6.88;;;5.20;;
76373;SDS011;65197;50.164;8.012;2023-06-26T04:48:24;6.57;;;5.50;;
76373;SDS011;65197;50.164;8.012;2023-06-26T04:50:49;7.80;;;5.05;;
76373;SDS011;65197;50.164;8.012;2023-06-26T04:53:19;6.55;;;5.20;;
76373;SDS011;65197;50.164;8.012;2023-06-26T04:55:45;6.60;;;4.72;;
76373;SDS011;65197;50.164;8.012;2023-06-26T04:58:11;7.70;;;5.22;;
76373;SDS011;65197;50.164;8.012;2023-06-26T05:00:36;8.02;;;5.68;;
76373;SDS011;65197;50.164;8.012;2023-06-26T05:03:02;6.93;;;5.00;;
76373;SDS011;65197;50.164;8.012;2023-06-26T05:05:27;6.10;;;5.05;;
76373;SDS011;65197;50.164;8.012;2023-06-26T05:07:53;9.80;;;5.72;;
76373;SDS011;65197;50.164;8.012;2023-06-26T05:10:19;7.63;;;5.30;;
76373;SDS011;65197;50.164;8.012;2023-06-26T05:12:45;7.25;;;5.43;;
76373;SDS011;65197;50.164;8.012;2023-06-26T05:15:10;7.20;;;5.60;;
76373;SDS011;65197;50.164;8.012;2023-06-26T05:17:36;7.07;;;5.57;;
76373;SDS011;65197;50.164;8.012;2023-06-26T05:20:01;6.35;;;5.28;;
76373;SDS011;65197;50.164;8.012;2023-06-26T05:22:28;6.68;;;5.55;;
76373;SDS011;65197;50.164;8.012;2023-06-26T05:24:55;7.28;;;5.28;;
76373;SDS011;65197;50.164;8.012;2023-06-26T05:27:24;6.80;;;5.60;;
76373;SDS011;65197;50.164;8.012;2023-06-26T05:29:50;6.38;;;5.13;;
76373;SDS011;65197;50.164;8.012;2023-06-26T05:32:16;6.20;;;5.20;;
76373;SDS011;65197;50.164;8.012;2023-06-26T05:34:46;7.88;;;5.43;;
76373;SDS011;65197;50.164;8.012;2023-06-26T05:37:20;7.03;;;5.55;;
76373;SDS011;65197;50.164;8.012;2023-06-26T05:39:47;8.35;;;5.28;;
76373;SDS011;65197;50.164;8.012;2023-06-26T05:42:13;7.80;;;6.20;;
76373;SDS011;65197;50.164;8.012;2023-06-26T05:44:38;7.00;;;5.25;;
76373;SDS011;65197;50.164;8.012;2023-06-26T05:47:04;6.53;;;5.40;;
76373;SDS011;65197;50.164;8.012;2023-06-26T05:49:30;6.32;;;5.03;;
76373;SDS011;65197;50.164;8.012;2023-06-26T05:51:55;7.28;;;4.85;;
76373;SDS011;65197;50.164;8.012;2023-06-26T05:54:22;7.15;;;5.28;;
76373;SDS011;65197;50.164;8.012;2023-06-26T05:56:49;5.97;;;5.35;;
76373;SDS011;65197;50.164;8.012;2023-06-26T05:59:17;5.75;;;4.95;;
76373;SDS011;65197;50.164;8.012;2023-06-26T06:01:43;7.45;;;5.57;;
76373;SDS011;65197;50.164;8.012;2023-06-26T06:04:08;8.77;;;5.78;;
76373;SDS011;65197;50.164;8.012;2023-06-26T06:06:34;7.55;;;5.65;;
76373;SDS011;65197;50.164;8.012;2023-06-26T06:08:59;6.63;;;5.78;;
76373;SDS011;65197;50.164;8.012;2023-06-26T06:11:24;5.93;;;5.32;;
76373;SDS011;65197;50.164;8.012;2023-06-26T06:13:50;6.43;;;5.38;;
76373;SDS011;65197;50.164;8.012;2023-06-26T06:16:15;6.28;;;5.65;;
76373;SDS011;65197;50.164;8.012;2023-06-26T06:18:40;7.45;;;5.50;;
76373;SDS011;65197;50.164;8.012;2023-06-26T06:21:06;7.32;;;5.35;;
76373;SDS011;65197;50.164;8.012;2023-06-26T06:23:31;7.05;;;5.25;;
76373;SDS011;65197;50.164;8.012;2023-06-26T06:25:57;6.97;;;5.35;;
76373;SDS011;65197;50.164;8.012;2023-06-26T06:28:22;6.68;;;5.00;;
76373;SDS011;65197;50.164;8.012;2023-06-26T06:30:48;7.32;;;5.30;;
76373;SDS011;65197;50.164;8.012;2023-06-26T06:33:13;6.03;;;5.18;;
76373;SDS011;65197;50.164;8.012;2023-06-26T06:35:39;7.30;;;5.45;;
76373;SDS011;65197;50.164;8.012;2023-06-26T06:38:04;7.65;;;5.40;;
76373;SDS011;65197;50.164;8.012;2023-06-26T06:40:30;6.25;;;5.65;;
76373;SDS011;65197;50.164;8.012;2023-06-26T06:42:55;6.50;;;4.97;;
76373;SDS011;65197;50.164;8.012;2023-06-26T06:45:21;6.57;;;5.43;;
76373;SDS011;65197;50.164;8.012;2023-06-26T06:47:46;5.80;;;5.20;;
76373;SDS011;65197;50.164;8.012;2023-06-26T06:50:12;5.72;;;5.07;;
76373;SDS011;65197;50.164;8.012;2023-06-26T06:52:39;6.28;;;5.45;;
76373;SDS011;65197;50.164;8.012;2023-06-26T06:55:06;6.70;;;5.80;;
76373;SDS011;65197;50.164;8.012;2023-06-26T06:57:33;5.85;;;5.15;;
76373;SDS011;65197;50.164;8.012;2023-06-26T07:00:03;7.68;;;5.82;;
76373;SDS011;65197;50.164;8.012;2023-06-26T07:02:29;6.40;;;5.40;;
76373;SDS011;65197;50.164;8.012;2023-06-26T07:04:55;6.13;;;5.53;;
76373;SDS011;65197;50.164;8.012;2023-06-26T07:07:20;6.75;;;5.40;;
76373;SDS011;65197;50.164;8.012;2023-06-26T07:09:46;7.22;;;5.18;;
76373;SDS011;65197;50.164;8.012;2023-06-26T07:12:11;7.80;;;5.90;;
76373;SDS011;65197;50.164;8.012;2023-06-26T07:14:36;5.95;;;5.18;;
76373;SDS011;65197;50.164;8.012;2023-06-26T07:17:02;6.47;;;5.32;;
76373;SDS011;65197;50.164;8.012;2023-06-26T07:19:27;6.60;;;5.38;;
76373;SDS011;65197;50.164;8.012;2023-06-26T07:21:53;8.32;;;5.47;;
76373;SDS011;65197;50.164;8.012;2023-06-26T07:24:19;7.20;;;5.68;;
76373;SDS011;65197;50.164;8.012;2023-06-26T07:26:44;6.25;;;5.25;;
76373;SDS011;65197;50.164;8.012;2023-06-26T07:29:09;7.40;;;5.80;;
76373;SDS011;65197;50.164;8.012;2023-06-26T07:31:35;8.88;;;5.72;;
76373;SDS011;65197;50.164;8.012;2023-06-26T07:34:00;6.88;;;5.47;;
76373;SDS011;65197;50.164;8.012;2023-06-26T07:36:26;7.03;;;5.72;;
76373;SDS011;65197;50.164;8.012;2023-06-26T07:38:51;7.63;;;6.00;;
76373;SDS011;65197;50.164;8.012;2023-06-26T07:41:16;6.93;;;5.55;;
76373;SDS011;65197;50.164;8.012;2023-06-26T07:43:42;6.78;;;5.82;;
76373;SDS011;65197;50.164;8.012;2023-06-26T07:46:08;6.85;;;5.88;;
76373;SDS011;65197;50.164;8.012;2023-06-26T07:48:33;7.68;;;6.32;;
76373;SDS011;65197;50.164;8.012;2023-06-26T07:50:59;7.45;;;5.95;;
76373;SDS011;65197;50.164;8.012;2023-06-26T07:53:24;8.27;;;6.35;;
76373;SDS011;65197;50.164;8.012;2023-06-26T07:55:50;6.60;;;5.90;;
76373;SDS011;65197;50.164;8.012;2023-06-26T07:58:15;12.38;;;6.72;;
76373;SDS011;65197;50.164;8.012;2023-06-26T08:00:41;10.48;;;6.28;;
76373;SDS011;65197;50.164;8.012;2023-06-26T08:03:06;7.45;;;5.93;;
76373;SDS011;65197;50.164;8.012;2023-06-26T08:05:31;7.28;;;5.65;;
76373;SDS011;65197;50.164;8.012;2023-06-26T08:07:57;7.32;;;5.88;;
76373;SDS011;65197;50.164;8.012;2023-06-26T08:10:23;6.95;;;5.97;;
76373;SDS011;65197;50.164;8.012;2023-06-26T08:12:48;6.70;;;5.80;;
76373;SDS011;65197;50.164;8.012;2023-06-26T08:15:15;7.28;;;5.60;;
76373;SDS011;65197;50.164;8.012;2023-06-26T08:17:40;8.60;;;6.38;;
76373;SDS011;65197;50.164;8.012;2023-06-26T08:20:06;6.93;;;5.65;;
76373;SDS011;65197;50.164;8.012;2023-06-26T08:22:33;7.60;;;5.40;;
76373;SDS011;65197;50.164;8.012;2023-06-26T08:24:58;7.32;;;5.40;;
76373;SDS011;65197;50.164;8.012;2023-06-26T08:27:24;6.65;;;5.32;;
76373;SDS011;65197;50.164;8.012;2023-06-26T08:29:49;6.22;;;4.88;;
76373;SDS011;65197;50.164;8.012;2023-06-26T08:32:15;6.97;;;6.00;;
76373;SDS011;65197;50.164;8.012;2023-06-26T08:34:40;6.18;;;5.15;;
76373;SDS011;65197;50.164;8.012;2023-06-26T08:37:06;6.30;;;4.80;;
76373;SDS011;65197;50.164;8.012;2023-06-26T08:39:34;6.47;;;4.88;;
76373;SDS011;65197;50.164;8.012;2023-06-26T08:41:59;6.20;;;4.90;;
76373;SDS011;65197;50.164;8.012;2023-06-26T08:44:25;8.18;;;5.00;;
76373;SDS011;65197;50.164;8.012;2023-06-26T08:46:50;5.70;;;4.88;;
76373;SDS011;65197;50.164;8.012;2023-06-26T08:49:25;6.22;;;4.70;;
76373;SDS011;65197;50.164;8.012;2023-06-26T08:52:04;6.28;;;4.70;;
76373;SDS011;65197;50.164;8.012;2023-06-26T08:54:36;6.78;;;4.40;;
76373;SDS011;65197;50.164;8.012;2023-06-26T08:57:07;13.35;;;5.30;;
76373;SDS011;65197;50.164;8.012;2023-06-26T08:59:33;5.47;;;4.25;;
76373;SDS011;65197;50.164;8.012;2023-06-26T09:01:59;4.85;;;4.10;;
76373;SDS011;65197;50.164;8.012;2023-06-26T09:04:25;8.18;;;4.43;;
76373;SDS011;65197;50.164;8.012;2023-06-26T09:06:50;6.90;;;4.53;;
76373;SDS011;65197;50.164;8.012;2023-06-26T09:09:16;7.55;;;5.15;;
76373;SDS011;65197;50.164;8.012;2023-06-26T09:11:41;7.13;;;5.32;;
76373;SDS011;65197;50.164;8.012;2023-06-26T09:14:06;7.85;;;4.85;;
76373;SDS011;65197;50.164;8.012;2023-06-26T09:16:39;6.75;;;5.25;;
76373;SDS011;65197;50.164;8.012;2023-06-26T09:19:09;11.55;;;4.70;;
76373;SDS011;65197;50.164;8.012;2023-06-26T09:21:37;7.53;;;4.95;;
76373;SDS011;65197;50.164;8.012;2023-06-26T09:24:06;7.20;;;4.82;;
76373;SDS011;65197;50.164;8.012;2023-06-26T09:26:34;5.93;;;5.20;;
76373;SDS011;65197;50.164;8.012;2023-06-26T09:29:00;6.32;;;4.75;;
76373;SDS011;65197;50.164;8.012;2023-06-26T09:31:26;6.82;;;5.68;;
76373;SDS011;65197;50.164;8.012;2023-06-26T09:33:51;8.13;;;5.68;;
76373;SDS011;65197;50.164;8.012;2023-06-26T09:36:22;7.82;;;5.65;;
76373;SDS011;65197;50.164;8.012;2023-06-26T09:38:49;7.72;;;5.68;;
76373;SDS011;65197;50.164;8.012;2023-06-26T09:41:16;7.82;;;6.25;;
76373;SDS011;65197;50.164;8.012;2023-06-26T09:43:49;10.23;;;5.90;;
76373;SDS011;65197;50.164;8.012;2023-06-26T09:46:16;9.13;;;5.78;;
76373;SDS011;65197;50.164;8.012;2023-06-26T09:48:43;9.20;;;6.28;;
76373;SDS011;65197;50.164;8.012;2023-06-26T09:51:09;8.27;;;5.88;;
76373;SDS011;65197;50.164;8.012;2023-06-26T09:53:35;6.63;;;5.60;;
76373;SDS011;65197;50.164;8.012;2023-06-26T09:56:15;7.10;;;6.03;;
76373;SDS011;65197;50.164;8.012;2023-06-26T09:58:44;7.93;;;6.15;;
76373;SDS011;65197;50.164;8.012;2023-06-26T10:01:09;8.82;;;5.53;;
76373;SDS011;65197;50.164;8.012;2023-06-26T10:03:35;7.65;;;5.90;;
76373;SDS011;65197;50.164;8.012;2023-06-26T10:06:01;7.60;;;5.55;;
76373;SDS011;65197;50.164;8.012;2023-06-26T10:08:27;5.90;;;5.25;;
76373;SDS011;65197;50.164;8.012;2023-06-26T10:10:54;9.10;;;5.25;;
76373;SDS011;65197;50.164;8.012;2023-06-26T10:13:25;13.63;;;6.20;;
76373;SDS011;65197;50.164;8.012;2023-06-26T10:15:55;8.00;;;5.47;;
76373;SDS011;65197;50.164;8.012;2023-06-26T10:18:25;6.32;;;5.15;;
76373;SDS011;65197;50.164;8.012;2023-06-26T10:20:53;7.82;;;5.53;;
76373;SDS011;65197;50.164;8.012;2023-06-26T10:23:21;8.88;;;5.80;;
76373;SDS011;65197;50.164;8.012;2023-06-26T10:25:48;7.63;;;5.68;;
76373;SDS011;65197;50.164;8.012;2023-06-26T10:28:16;7.50;;;5.28;;
76373;SDS011;65197;50.164;8.012;2023-06-26T10:30:42;6.22;;;5.22;;
76373;SDS011;65197;50.164;8.012;2023-06-26T10:33:09;8.50;;;5.60;;
76373;SDS011;65197;50.164;8.012;2023-06-26T10:35:43;7.15;;;5.22;;
76373;SDS011;65197;50.164;8.012;2023-06-26T10:38:09;9.95;;;5.10;;
76373;SDS011;65197;50.164;8.012;2023-06-26T10:40:47;7.07;;;5.20;;
76373;SDS011;65197;50.164;8.012;2023-06-26T10:43:16;7.65;;;5.78;;
76373;SDS011;65197;50.164;8.012;2023-06-26T10:45:52;7.60;;;5.30;;
76373;SDS011;65197;50.164;8.012;2023-06-26T10:48:20;7.78;;;5.82;;
76373;SDS011;65197;50.164;8.012;2023-06-26T10:50:47;8.77;;;5.38;;
76373;SDS011;65197;50.164;8.012;2023-06-26T10:56:03;9.63;;;5.13;;
76373;SDS011;65197;50.164;8.012;2023-06-26T11:03:36;7.38;;;5.78;;
76373;SDS011;65197;50.164;8.012;2023-06-26T11:06:08;9.07;;;5.22;;
76373;SDS011;65197;50.164;8.012;2023-06-26T11:08:48;8.40;;;5.28;;
76373;SDS011;65197;50.164;8.012;2023-06-26T11:11:15;8.95;;;5.28;;
76373;SDS011;65197;50.164;8.012;2023-06-26T11:13:42;7.75;;;5.80;;
76373;SDS011;65197;50.164;8.012;2023-06-26T11:16:07;9.70;;;5.40;;
76373;SDS011;65197;50.164;8.012;2023-06-26T11:18:33;8.07;;;5.70;;
76373;SDS011;65197;50.164;8.012;2023-06-26T11:21:11;7.20;;;5.32;;
76373;SDS011;65197;50.164;8.012;2023-06-26T11:26:18;11.05;;;5.78;;
76373;SDS011;65197;50.164;8.012;2023-06-26T11:28:47;8.43;;;5.38;;
76373;SDS011;65197;50.164;8.012;2023-06-26T11:34:01;7.88;;;5.57;;
76373;SDS011;65197;50.164;8.012;2023-06-26T11:36:28;5.93;;;4.70;;
76373;SDS011;65197;50.164;8.012;2023-06-26T11:38:55;6.65;;;4.80;;
76373;SDS011;65197;50.164;8.012;2023-06-26T11:41:21;8.23;;;5.40;;
76373;SDS011;65197;50.164;8.012;2023-06-26T11:43:47;7.35;;;5.28;;
76373;SDS011;65197;50.164;8.012;2023-06-26T11:46:15;8.20;;;5.93;;
76373;SDS011;65197;50.164;8.012;2023-06-26T11:48:42;7.57;;;5.68;;
76373;SDS011;65197;50.164;8.012;2023-06-26T11:51:08;7.95;;;5.90;;
76373;SDS011;65197;50.164;8.012;2023-06-26T11:53:38;7.80;;;5.85;;
76373;SDS011;65197;50.164;8.012;2023-06-26T11:56:11;7.63;;;5.40;;
76373;SDS011;65197;50.164;8.012;2023-06-26T12:01:22;9.35;;;5.35;;
76373;SDS011;65197;50.164;8.012;2023-06-26T12:03:49;7.20;;;4.78;;
76373;SDS011;65197;50.164;8.012;2023-06-26T12:06:15;6.80;;;5.13;;
76373;SDS011;65197;50.164;8.012;2023-06-26T12:08:41;9.00;;;4.90;;
76373;SDS011;65197;50.164;8.012;2023-06-26T12:11:07;8.65;;;4.95;;
76373;SDS011;65197;50.164;8.012;2023-06-26T12:13:32;8.20;;;5.20;;
76373;SDS011;65197;50.164;8.012;2023-06-26T12:15:59;6.75;;;5.03;;
76373;SDS011;65197;50.164;8.012;2023-06-26T12:18:24;7.43;;;5.47;;
76373;SDS011;65197;50.164;8.012;2023-06-26T12:20:51;10.50;;;4.90;;
76373;SDS011;65197;50.164;8.012;2023-06-26T12:23:17;7.93;;;5.18;;
76373;SDS011;65197;50.164;8.012;2023-06-26T12:25:43;6.82;;;4.68;;
76373;SDS011;65197;50.164;8.012;2023-06-26T12:28:15;7.57;;;5.07;;
76373;SDS011;65197;50.164;8.012;2023-06-26T12:30:45;7.82;;;4.90;;
76373;SDS011;65197;50.164;8.012;2023-06-26T12:33:14;9.95;;;4.78;;
76373;SDS011;65197;50.164;8.012;2023-06-26T12:35:40;8.63;;;4.47;;
76373;SDS011;65197;50.164;8.012;2023-06-26T12:38:08;6.78;;;4.40;;
76373;SDS011;65197;50.164;8.012;2023-06-26T12:40:36;7.55;;;4.28;;
76373;SDS011;65197;50.164;8.012;2023-06-26T12:45:47;7.28;;;4.22;;
76373;SDS011;65197;50.164;8.012;2023-06-26T12:48:13;8.05;;;3.95;;
76373;SDS011;65197;50.164;8.012;2023-06-26T12:50:43;7.13;;;4.03;;
76373;SDS011;65197;50.164;8.012;2023-06-26T12:53:09;6.38;;;4.10;;
76373;SDS011;65197;50.164;8.012;2023-06-26T12:55:35;7.15;;;3.72;;
76373;SDS011;65197;50.164;8.012;2023-06-26T12:58:01;6.00;;;3.67;;
76373;SDS011;65197;50.164;8.012;2023-06-26T13:00:26;5.30;;;3.50;;
76373;SDS011;65197;50.164;8.012;2023-06-26T13:02:52;6.00;;;3.50;;
76373;SDS011;65197;50.164;8.012;2023-06-26T13:05:17;6.22;;;3.53;;
76373;SDS011;65197;50.164;8.012;2023-06-26T13:07:43;6.90;;;3.50;;
76373;SDS011;65197;50.164;8.012;2023-06-26T13:10:08;6.95;;;3.63;;
76373;SDS011;65197;50.164;8.012;2023-06-26T13:12:33;5.00;;;3.45;;
76373;SDS011;65197;50.164;8.012;2023-06-26T13:14:59;7.38;;;3.63;;
76373;SDS011;65197;50.164;8.012;2023-06-26T13:17:24;5.13;;;3.28;;
76373;SDS011;65197;50.164;8.012;2023-06-26T13:19:50;8.05;;;3.40;;
76373;SDS011;65197;50.164;8.012;2023-06-26T13:22:15;6.53;;;3.47;;
76373;SDS011;65197;50.164;8.012;2023-06-26T13:24:40;6.47;;;3.17;;
76373;SDS011;65197;50.164;8.012;2023-06-26T13:27:06;5.93;;;3.42;;
76373;SDS011;65197;50.164;8.012;2023-06-26T13:29:31;6.30;;;3.30;;
76373;SDS011;65197;50.164;8.012;2023-06-26T13:31:57;5.80;;;3.50;;
76373;SDS011;65197;50.164;8.012;2023-06-26T13:34:23;6.63;;;2.92;;
76373;SDS011;65197;50.164;8.012;2023-06-26T13:36:49;5.15;;;3.10;;
76373;SDS011;65197;50.164;8.012;2023-06-26T13:39:15;7.78;;;2.95;;
76373;SDS011;65197;50.164;8.012;2023-06-26T13:41:40;4.93;;;3.08;;
76373;SDS011;65197;50.164;8.012;2023-06-26T13:44:06;5.90;;;2.90;;
76373;SDS011;65197;50.164;8.012;2023-06-26T13:46:31;8.77;;;3.30;;
76373;SDS011;65197;50.164;8.012;2023-06-26T13:48:56;4.55;;;2.70;;
76373;SDS011;65197;50.164;8.012;2023-06-26T13:51:22;4.88;;;2.65;;
76373;SDS011;65197;50.164;8.012;2023-06-26T13:53:47;5.50;;;2.63;;
76373;SDS011;65197;50.164;8.012;2023-06-26T13:56:12;6.93;;;2.58;;
76373;SDS011;65197;50.164;8.012;2023-06-26T13:58:38;5.70;;;2.53;;
76373;SDS011;65197;50.164;8.012;2023-06-26T14:01:03;4.35;;;2.42;;
76373;SDS011;65197;50.164;8.012;2023-06-26T14:03:31;5.57;;;2.42;;
76373;SDS011;65197;50.164;8.012;2023-06-26T14:05:57;4.00;;;2.47;;
76373;SDS011;65197;50.164;8.012;2023-06-26T14:08:22;3.83;;;2.20;;
76373;SDS011;65197;50.164;8.012;2023-06-26T14:10:48;5.88;;;2.83;;
76373;SDS011;65197;50.164;8.012;2023-06-26T14:13:13;4.63;;;2.28;;
76373;SDS011;65197;50.164;8.012;2023-06-26T14:15:40;4.32;;;2.10;;
76373;SDS011;65197;50.164;8.012;2023-06-26T14:18:07;5.60;;;2.47;;
76373;SDS011;65197;50.164;8.012;2023-06-26T14:20:32;11.13;;;2.95;;
76373;SDS011;65197;50.164;8.012;2023-06-26T14:22:58;8.02;;;2.50;;
76373;SDS011;65197;50.164;8.012;2023-06-26T14:25:24;4.97;;;2.30;;
76373;SDS011;65197;50.164;8.012;2023-06-26T14:27:51;8.02;;;2.40;;
76373;SDS011;65197;50.164;8.012;2023-06-26T14:30:16;4.05;;;2.00;;
76373;SDS011;65197;50.164;8.012;2023-06-26T14:32:42;5.88;;;2.60;;
76373;SDS011;65197;50.164;8.012;2023-06-26T14:35:07;4.90;;;2.03;;
76373;SDS011;65197;50.164;8.012;2023-06-26T14:37:33;4.25;;;1.90;;
76373;SDS011;65197;50.164;8.012;2023-06-26T14:40:00;5.18;;;2.40;;
76373;SDS011;65197;50.164;8.012;2023-06-26T14:42:26;5.03;;;2.08;;
76373;SDS011;65197;50.164;8.012;2023-06-26T14:44:51;5.68;;;2.25;;
76373;SDS011;65197;50.164;8.012;2023-06-26T14:47:17;5.30;;;2.22;;
76373;SDS011;65197;50.164;8.012;2023-06-26T14:49:42;4.60;;;2.28;;
76373;SDS011;65197;50.164;8.012;2023-06-26T14:52:08;4.57;;;2.47;;
76373;SDS011;65197;50.164;8.012;2023-06-26T14:54:34;5.25;;;2.22;;
76373;SDS011;65197;50.164;8.012;2023-06-26T14:57:01;4.47;;;1.90;;
76373;SDS011;65197;50.164;8.012;2023-06-26T14:59:28;4.38;;;2.00;;
76373;SDS011;65197;50.164;8.012;2023-06-26T15:01:53;5.78;;;2.05;;
76373;SDS011;65197;50.164;8.012;2023-06-26T15:04:18;3.88;;;1.98;;
76373;SDS011;65197;50.164;8.012;2023-06-26T15:06:44;4.75;;;2.28;;